Time;durP1;ratioP1;P1;durP2;ratioP2;P2;SDS_P1;SDS_P2;PMS_P1;PMS_P2;Temp;Humidity;BMP_temperature;BMP_pressure;BME280_temperature;BME280_humidity;BME280_pressure;Samples;Min_cycle;Max_cycle;Signal;HPM_P1;HPM_P2
2023/02/23 00:00:46;;;;;;;31.60;16.10;;;;;;;-1.09;85.94;96715.63;108720;1266;22599;-80
2023/02/23 00:03:19;;;;;;;29.60;16.70;;;;;;;-1.10;85.72;96717.66;108747;1273;22478;-80
2023/02/23 00:05:50;;;;;;;27.70;15.70;;;;;;;-1.16;85.60;96712.94;108702;1273;22521;-80
2023/02/23 00:08:22;;;;;;;30.80;16.90;;;;;;;-1.21;85.64;96712.35;108679;1273;24202;-80
2023/02/23 00:10:57;;;;;;;38.40;17.20;;;;;;;-1.23;85.55;96712.55;108729;1273;23532;-79
2023/02/23 00:13:28;;;;;;;31.30;16.40;;;;;;;-1.22;85.69;96712.59;108740;1273;22981;-80
2023/02/23 00:16:03;;;;;;;32.00;18.10;;;;;;;-1.19;85.75;96711.77;108730;1272;26656;-80
2023/02/23 00:18:43;;;;;;;30.30;14.80;;;;;;;-1.20;86.03;96709.23;108762;1273;22523;-80
2023/02/23 00:21:19;;;;;;;28.80;13.80;;;;;;;-1.28;85.95;96708.98;108659;1270;42108;-80
2023/02/23 00:23:52;;;;;;;30.20;15.80;;;;;;;-1.35;86.24;96705.84;108748;1273;23197;-80
2023/02/23 00:26:24;;;;;;;37.40;16.60;;;;;;;-1.34;86.54;96702.91;108726;1261;22525;-80
2023/02/23 00:28:56;;;;;;;32.90;15.60;;;;;;;-1.34;86.55;96701.59;108698;1273;24176;-80
2023/02/23 00:31:28;;;;;;;38.40;18.80;;;;;;;-1.30;86.78;96704.14;108754;1273;22554;-80
2023/02/23 00:34:02;;;;;;;25.40;15.30;;;;;;;-1.27;86.58;96707.23;108717;1274;22563;-80
2023/02/23 00:36:35;;;;;;;30.10;16.70;;;;;;;-1.29;86.81;96705.94;108731;1270;22670;-80
2023/02/23 00:39:17;;;;;;;34.00;16.90;;;;;;;-1.31;86.64;96704.30;108718;1273;22550;-80
2023/02/23 00:41:51;;;;;;;34.70;16.30;;;;;;;-1.34;86.84;96706.27;108730;1273;25195;-80
2023/02/23 00:44:23;;;;;;;33.90;17.40;;;;;;;-1.33;87.02;96702.19;108734;1273;23372;-80
2023/02/23 00:46:54;;;;;;;25.90;13.50;;;;;;;-1.29;87.12;96704.94;108755;1273;23886;-80
2023/02/23 00:49:26;;;;;;;22.70;12.00;;;;;;;-1.29;87.20;96703.95;108733;1273;24235;-80
2023/02/23 00:51:57;;;;;;;25.60;12.90;;;;;;;-1.36;86.69;96704.71;108757;1273;24204;-80
2023/02/23 00:54:28;;;;;;;26.50;13.40;;;;;;;-1.46;87.10;96704.11;108756;1274;25346;-80
2023/02/23 00:56:59;;;;;;;27.60;13.50;;;;;;;-1.55;86.87;96702.75;108770;1273;22516;-80
2023/02/23 00:59:30;;;;;;;31.60;15.40;;;;;;;-1.55;87.43;96703.95;108736;1273;22527;-80
2023/02/23 01:02:01;;;;;;;31.90;16.10;;;;;;;-1.48;87.95;96699.52;108648;1267;22525;-80
2023/02/23 01:04:32;;;;;;;28.80;15.10;;;;;;;-1.41;87.88;96700.98;108748;1273;22670;-80
2023/02/23 01:07:05;;;;;;;24.80;14.10;;;;;;;-1.36;87.89;96697.59;108698;1273;25650;-80
2023/02/23 01:09:36;;;;;;;24.00;13.90;;;;;;;-1.39;87.56;96700.35;108744;1266;23853;-80
2023/02/23 01:12:08;;;;;;;25.10;13.10;;;;;;;-1.47;87.19;96703.15;108739;1267;25274;-80
2023/02/23 01:14:41;;;;;;;26.90;14.00;;;;;;;-1.56;87.04;96703.54;108735;1273;22535;-80
2023/02/23 01:17:12;;;;;;;27.20;13.00;;;;;;;-1.67;87.00;96704.21;108768;1273;25445;-80
2023/02/23 01:19:43;;;;;;;24.20;12.40;;;;;;;-1.71;86.90;96702.31;108753;1267;23613;-80
2023/02/23 01:22:14;;;;;;;25.30;13.10;;;;;;;-1.70;86.97;96698.40;108722;1266;22657;-80
2023/02/23 01:24:45;;;;;;;20.70;10.80;;;;;;;-1.68;86.99;96697.77;108717;1267;22533;-80
2023/02/23 01:27:16;;;;;;;25.40;13.30;;;;;;;-1.63;87.09;96697.70;108742;1273;24209;-80
2023/02/23 01:29:47;;;;;;;23.00;12.60;;;;;;;-1.60;87.24;96691.87;108771;1273;22538;-80
2023/02/23 01:32:18;;;;;;;26.00;11.90;;;;;;;-1.57;87.43;96691.02;108730;1273;23347;-80
2023/02/23 01:34:49;;;;;;;27.70;14.60;;;;;;;-1.55;87.34;96691.15;108708;1268;25264;-80
2023/02/23 01:37:20;;;;;;;29.20;15.80;;;;;;;-1.55;87.24;96686.27;108735;1270;25524;-80
2023/02/23 01:39:51;;;;;;;36.30;15.70;;;;;;;-1.55;87.29;96685.08;108723;1267;24403;-79
2023/02/23 01:42:24;;;;;;;29.70;14.40;;;;;;;-1.56;87.09;96683.86;108743;1270;22649;-80
2023/02/23 01:45:22;;;;;;;25.60;14.10;;;;;;;-1.54;87.32;96681.52;108768;1267;23404;-80
2023/02/23 01:47:57;;;;;;;20.10;11.40;;;;;;;-1.49;87.65;96679.11;108741;1273;22629;-80
2023/02/23 01:50:31;;;;;;;24.60;13.00;;;;;;;-1.51;87.72;96675.88;108831;1274;22528;-80
2023/02/23 01:53:02;;;;;;;25.30;12.20;;;;;;;-1.55;87.60;96673.31;108732;1273;22541;-80
2023/02/23 01:55:34;;;;;;;28.20;13.50;;;;;;;-1.59;87.63;96673.50;108750;1274;22532;-80
2023/02/23 01:58:14;;;;;;;25.60;13.30;;;;;;;-1.62;87.62;96669.23;108749;1273;22639;-80
2023/02/23 02:00:53;;;;;;;25.70;13.80;;;;;;;-1.62;87.97;96665.20;108757;1270;22552;-80
2023/02/23 02:03:29;;;;;;;24.20;12.90;;;;;;;-1.56;88.24;96666.63;108721;1267;24226;-80
2023/02/23 02:06:03;;;;;;;27.90;13.40;;;;;;;-1.54;88.35;96665.93;108810;1267;24013;-80
2023/02/23 02:08:43;;;;;;;24.70;14.10;;;;;;;-1.57;88.21;96664.23;108903;1263;22530;-80
2023/02/23 02:11:29;;;;;;;29.10;15.40;;;;;;;-1.59;88.33;96661.83;108732;1273;25420;-80
2023/02/23 02:14:03;;;;;;;27.80;14.10;;;;;;;-1.56;88.35;96662.38;108759;1269;22520;-80
2023/02/23 02:17:01;;;;;;;24.00;13.30;;;;;;;-1.56;88.50;96662.06;108757;1273;22633;-80
2023/02/23 02:20:11;;;;;;;23.90;14.00;;;;;;;-1.54;88.48;96659.89;108751;1273;25450;-80
2023/02/23 02:23:08;;;;;;;26.70;14.00;;;;;;;-1.51;88.36;96662.96;108728;1270;22566;-80
2023/02/23 02:25:49;;;;;;;24.50;13.10;;;;;;;-1.49;88.17;96660.03;108732;1273;22522;-80
2023/02/23 02:29:00;;;;;;;24.40;14.00;;;;;;;-1.47;88.06;96659.83;108798;1273;22531;-80
2023/02/23 02:32:00;;;;;;;30.00;13.30;;;;;;;-1.55;87.64;96659.15;108694;1267;23801;-80
2023/02/23 02:35:03;;;;;;;23.80;11.90;;;;;;;-1.68;87.57;96659.84;108752;1273;22606;-80
2023/02/23 02:37:46;;;;;;;26.50;11.80;;;;;;;-1.73;87.68;96653.70;108725;1273;22593;-80
2023/02/23 02:40:26;;;;;;;21.20;11.20;;;;;;;-1.76;87.94;96653.03;108773;1267;26542;-80
2023/02/23 02:43:09;;;;;;;24.10;11.30;;;;;;;-1.78;88.26;96653.84;108730;1267;30079;-80
2023/02/23 02:45:51;;;;;;;19.50;10.80;;;;;;;-1.81;88.26;96648.67;108779;1273;22537;-80
2023/02/23 02:48:31;;;;;;;22.90;11.90;;;;;;;-1.88;88.25;96653.22;108731;1268;23907;-80
2023/02/23 02:51:11;;;;;;;23.70;12.10;;;;;;;-1.94;88.00;96648.66;108763;1273;22531;-79
2023/02/23 02:53:50;;;;;;;22.00;11.70;;;;;;;-2.00;88.23;96644.52;108785;1273;22517;-80
2023/02/23 02:56:25;;;;;;;25.80;12.80;;;;;;;-2.04;88.22;96644.70;108723;1266;23327;-80
2023/02/23 02:58:58;;;;;;;21.50;12.20;;;;;;;-2.02;88.49;96642.13;108689;1273;22517;-80
2023/02/23 04:19:50;;;;;;;22.50;13.40;;;;;;;-1.87;89.69;96623.48;108796;1273;22532;-80
2023/02/23 04:22:22;;;;;;;19.90;11.60;;;;;;;-1.87;89.58;96624.00;108736;1273;22631;-80
2023/02/23 04:24:53;;;;;;;22.20;12.10;;;;;;;-1.89;89.55;96625.80;108775;1273;22531;-80
2023/02/23 04:27:24;;;;;;;26.30;10.90;;;;;;;-1.93;89.12;96625.20;108779;1273;22562;-80
2023/02/23 04:29:56;;;;;;;23.30;12.30;;;;;;;-1.97;88.97;96628.88;108791;1273;23296;-80
2023/02/23 04:32:27;;;;;;;22.80;12.10;;;;;;;-2.05;88.82;96629.59;108692;1273;76560;-80
2023/02/23 04:34:58;;;;;;;21.40;12.20;;;;;;;-2.06;89.05;96627.19;108803;1273;22596;-80
2023/02/23 04:37:29;;;;;;;21.60;11.90;;;;;;;-2.04;89.39;96628.91;108719;1273;24092;-81
2023/02/23 04:40:00;;;;;;;26.00;11.00;;;;;;;-1.96;90.06;96624.08;108773;1273;22518;-80
2023/02/23 04:42:31;;;;;;;28.00;12.50;;;;;;;-1.78;90.90;96624.73;108743;1273;26011;-80
2023/02/23 04:45:04;;;;;;;23.20;12.80;;;;;;;-1.72;90.77;96623.56;108744;1273;22535;-80
2023/02/23 04:47:35;;;;;;;19.90;10.10;;;;;;;-1.58;91.43;96625.40;108730;1273;22589;-80
2023/02/23 04:50:07;;;;;;;22.90;11.60;;;;;;;-1.40;91.92;96626.58;108728;1273;26569;-80
2023/02/23 04:52:39;;;;;;;22.10;11.40;;;;;;;-1.34;91.66;96628.38;108797;1273;25243;-80
2023/02/23 04:55:15;;;;;;;23.50;11.40;;;;;;;-1.32;91.59;96622.73;108729;1270;22532;-80
2023/02/23 04:57:46;;;;;;;22.60;10.90;;;;;;;-1.31;91.20;96625.81;108771;1268;22703;-80
2023/02/23 05:00:19;;;;;;;19.10;11.10;;;;;;;-1.31;91.28;96624.77;108771;1270;24274;-81
2023/02/23 05:02:50;;;;;;;21.10;11.20;;;;;;;-1.31;91.29;96621.00;109169;1273;23637;-80
2023/02/23 05:05:21;;;;;;;27.50;11.90;;;;;;;-1.27;91.67;96619.13;108739;1268;24218;-81
2023/02/23 05:07:53;;;;;;;25.00;12.00;;;;;;;-1.23;91.69;96619.95;108678;1268;22581;-80
2023/02/23 05:10:25;;;;;;;20.80;10.20;;;;;;;-1.17;91.55;96617.21;108734;1273;22716;-81
2023/02/23 05:12:57;;;;;;;23.80;10.50;;;;;;;-1.15;91.50;96617.36;109049;1273;22520;-81
2023/02/23 05:15:29;;;;;;;23.50;10.20;;;;;;;-1.12;91.38;96618.14;108774;1266;22566;-81
2023/02/23 05:18:00;;;;;;;19.10;11.00;;;;;;;-1.12;91.26;96619.42;108768;1269;22517;-81
2023/02/23 05:20:31;;;;;;;21.60;12.10;;;;;;;-1.09;91.58;96617.80;108742;1273;23810;-81
2023/02/23 05:23:02;;;;;;;20.20;10.80;;;;;;;-1.05;91.48;96617.11;109108;1273;22535;-81
2023/02/23 05:25:34;;;;;;;21.70;11.90;;;;;;;-1.04;91.73;96616.23;109060;1269;22602;-81
2023/02/23 05:28:06;;;;;;;16.90;10.10;;;;;;;-1.04;91.27;96620.27;109131;1250;22563;-81
2023/02/23 05:30:39;;;;;;;23.20;9.80;;;;;;;-1.06;91.22;96621.80;109078;1266;24208;-81
2023/02/23 05:33:12;;;;;;;20.80;11.80;;;;;;;-1.08;91.06;96622.77;108734;1273;22563;-81
2023/02/23 05:35:44;;;;;;;19.50;11.30;;;;;;;-1.12;91.14;96623.58;108746;1272;23886;-81
2023/02/23 05:38:24;;;;;;;21.00;12.10;;;;;;;-1.13;90.86;96629.64;108711;1273;22532;-81
2023/02/23 05:40:55;;;;;;;18.60;11.40;;;;;;;-1.12;91.17;96630.91;109113;1273;22563;-81
2023/02/23 05:43:26;;;;;;;24.80;12.60;;;;;;;-1.08;91.19;96629.13;109071;1273;22549;-81
2023/02/23 05:45:58;;;;;;;23.40;11.30;;;;;;;-1.10;91.09;96629.66;109131;1273;22535;-81
2023/02/23 05:48:29;;;;;;;24.60;12.80;;;;;;;-1.11;91.67;96627.81;109108;1268;22567;-81
2023/02/23 05:51:04;;;;;;;24.60;11.80;;;;;;;-0.99;91.87;96627.98;109076;1273;24043;-81
2023/02/23 05:53:36;;;;;;;24.60;12.20;;;;;;;-0.92;92.00;96628.32;109074;1273;24200;-81
2023/02/23 05:56:12;;;;;;;23.00;11.20;;;;;;;-0.87;91.90;96633.42;109062;1269;22566;-81
2023/02/23 05:58:43;;;;;;;19.80;11.80;;;;;;;-0.80;91.46;96630.20;109097;1273;22982;-81
2023/02/23 06:01:14;;;;;;;23.40;13.50;;;;;;;-0.71;91.58;96635.89;109101;1270;22762;-82
2023/02/23 06:03:45;;;;;;;24.90;13.80;;;;;;;-0.59;91.81;96634.48;109121;1270;22528;-81
2023/02/23 06:06:18;;;;;;;25.80;12.70;;;;;;;-0.44;91.74;96632.14;109119;1273;22590;-81
2023/02/23 06:08:49;;;;;;;23.10;13.20;;;;;;;-0.29;91.35;96633.02;109130;1273;22531;-81
2023/02/23 06:11:22;;;;;;;19.10;12.30;;;;;;;-0.17;91.24;96631.72;109066;1273;22575;-81
2023/02/23 06:13:54;;;;;;;21.60;12.00;;;;;;;-0.05;91.22;96637.33;109068;1269;22537;-81
2023/02/23 06:16:25;;;;;;;20.80;13.30;;;;;;;0.04;90.70;96632.46;109074;1268;25282;-81
2023/02/23 06:18:55;;;;;;;19.10;11.50;;;;;;;0.13;90.73;96632.84;109091;1273;22523;-81
2023/02/23 06:21:26;;;;;;;22.90;12.40;;;;;;;0.21;90.72;96633.84;109086;1273;22614;-81
2023/02/23 06:23:59;;;;;;;20.10;12.00;;;;;;;0.29;90.23;96637.79;109089;1273;22538;-82
2023/02/23 06:26:31;;;;;;;22.50;11.60;;;;;;;0.42;90.07;96633.70;109100;1273;24238;-82
2023/02/23 06:29:02;;;;;;;19.80;11.70;;;;;;;0.57;89.96;96631.65;109094;1273;24264;-81
2023/02/23 06:31:33;;;;;;;21.00;12.40;;;;;;;0.69;89.43;96630.74;109035;1273;54568;-81
2023/02/23 06:34:04;;;;;;;19.10;11.60;;;;;;;0.77;89.40;96632.67;109113;1273;23373;-82
2023/02/23 06:36:35;;;;;;;26.20;14.00;;;;;;;0.91;89.24;96633.27;109096;1273;25319;-81
2023/02/23 06:39:07;;;;;;;21.70;11.20;;;;;;;0.98;88.90;96633.95;109042;1270;22534;-81
2023/02/23 06:41:38;;;;;;;18.90;11.30;;;;;;;1.14;89.08;96637.36;109092;1262;22688;-81
2023/02/23 06:44:08;;;;;;;21.50;11.80;;;;;;;1.33;88.85;96635.42;109067;1274;22520;-81
2023/02/23 06:46:39;;;;;;;22.20;10.70;;;;;;;1.50;88.57;96637.52;108735;1274;23971;-81
2023/02/23 06:49:12;;;;;;;17.80;11.20;;;;;;;1.70;88.32;96634.96;109066;1269;22527;-81
2023/02/23 06:51:43;;;;;;;22.70;12.20;;;;;;;1.82;87.84;96632.70;108974;1273;22528;-81
2023/02/23 06:54:15;;;;;;;16.80;10.60;;;;;;;1.95;87.51;96633.83;108782;1273;23900;-81
2023/02/23 06:56:45;;;;;;;19.40;11.20;;;;;;;2.08;87.08;96635.68;108763;1269;22564;-81
2023/02/23 06:59:16;;;;;;;23.80;13.30;;;;;;;2.08;85.62;96633.02;109041;1273;22517;-81
2023/02/23 07:01:48;;;;;;;18.10;11.30;;;;;;;2.10;85.98;96634.45;108643;1272;72273;-81
2023/02/23 07:04:19;;;;;;;19.60;11.40;;;;;;;2.34;86.19;96634.05;108735;1269;25301;-81
2023/02/23 07:06:50;;;;;;;16.80;10.80;;;;;;;2.55;86.03;96634.57;108701;1273;23009;-81
2023/02/23 07:09:21;;;;;;;22.80;11.20;;;;;;;2.64;85.35;96634.17;108728;1274;22677;-80
2023/02/23 07:11:52;;;;;;;19.00;11.90;;;;;;;2.86;85.08;96634.76;108718;1273;25358;-80
2023/02/23 07:14:23;;;;;;;16.80;10.40;;;;;;;3.04;84.22;96633.73;108718;1273;23812;-81
2023/02/23 07:16:54;;;;;;;19.80;11.70;;;;;;;3.21;84.04;96630.70;108720;1268;22535;-80
2023/02/23 07:19:25;;;;;;;18.90;10.20;;;;;;;3.44;83.81;96630.05;108734;1265;23762;-80
2023/02/23 07:21:56;;;;;;;14.10;9.20;;;;;;;3.78;83.12;96627.98;108716;1272;25252;-81
2023/02/23 07:24:28;;;;;;;16.50;9.00;;;;;;;3.85;82.12;96627.52;108716;1272;22725;-81
2023/02/23 07:26:59;;;;;;;12.80;8.20;;;;;;;4.01;81.34;96624.87;108724;1266;24946;-80
2023/02/23 07:29:30;;;;;;;18.00;8.90;;;;;;;4.03;80.43;96625.48;108745;1274;26554;-81
2023/02/23 07:32:01;;;;;;;16.60;10.30;;;;;;;4.21;80.59;96630.36;108691;1270;39430;-80
2023/02/23 07:34:32;;;;;;;20.10;10.40;;;;;;;4.38;79.63;96627.81;108720;1268;24279;-81
2023/02/23 07:37:04;;;;;;;16.80;9.70;;;;;;;4.62;79.87;96625.98;108746;1274;27516;-81
2023/02/23 07:39:35;;;;;;;19.20;9.70;;;;;;;4.93;78.63;96625.54;108709;1273;22672;-81
2023/02/23 07:42:07;;;;;;;19.70;9.70;;;;;;;5.10;77.92;96626.02;108705;1274;22530;-80
2023/02/23 07:44:38;;;;;;;17.60;9.10;;;;;;;5.44;78.06;96628.62;109078;1270;22516;-80
2023/02/23 07:47:10;;;;;;;19.00;9.90;;;;;;;5.83;77.43;96622.71;109098;1273;22520;-81
2023/02/23 07:49:41;;;;;;;14.00;8.10;;;;;;;6.10;76.39;96622.52;109098;1273;23979;-80
2023/02/23 07:52:12;;;;;;;18.00;9.10;;;;;;;6.27;75.19;96622.00;109087;1273;22537;-81
2023/02/23 07:54:43;;;;;;;19.00;9.80;;;;;;;6.45;74.62;96621.99;109114;1266;22548;-81
2023/02/23 07:57:17;;;;;;;15.70;9.40;;;;;;;6.60;73.25;96618.85;109079;1274;25416;-81
2023/02/23 07:59:48;;;;;;;15.00;8.60;;;;;;;6.80;73.36;96620.35;109080;1266;25461;-81
2023/02/23 08:02:19;;;;;;;14.10;8.80;;;;;;;6.93;71.91;96622.12;109075;1273;23856;-81
2023/02/23 08:04:52;;;;;;;16.60;9.20;;;;;;;6.82;70.79;96622.80;109085;1270;22518;-81
2023/02/23 08:07:25;;;;;;;15.80;8.70;;;;;;;6.69;70.13;96625.02;109116;1267;26549;-81
2023/02/23 08:09:56;;;;;;;15.90;9.20;;;;;;;6.72;70.86;96625.98;109075;1273;23415;-81
2023/02/23 08:12:27;;;;;;;16.40;8.80;;;;;;;6.90;69.98;96625.54;109053;1274;22568;-81
2023/02/23 08:14:58;;;;;;;16.60;9.10;;;;;;;6.86;69.32;96624.39;109075;1269;22521;-81
2023/02/23 08:17:29;;;;;;;12.70;8.10;;;;;;;6.92;68.41;96626.17;109051;1269;22543;-81
2023/02/23 08:20:00;;;;;;;16.20;9.40;;;;;;;6.80;67.66;96619.36;109089;1273;22566;-81
2023/02/23 08:22:31;;;;;;;12.60;7.30;;;;;;;6.93;67.96;96624.03;109062;1270;25505;-81
2023/02/23 08:25:04;;;;;;;15.10;7.80;;;;;;;6.99;66.85;96626.48;109056;1269;22520;-81
2023/02/23 08:27:37;;;;;;;13.60;9.20;;;;;;;7.25;67.08;96624.00;109143;1273;23252;-81
2023/02/23 08:30:10;;;;;;;14.60;8.30;;;;;;;7.54;66.60;96629.92;109057;1273;22531;-81
2023/02/23 08:32:42;;;;;;;12.20;7.90;;;;;;;7.70;65.97;96626.30;109070;1275;28528;-81
2023/02/23 08:35:14;;;;;;;11.50;7.80;;;;;;;7.95;66.18;96625.95;109091;1267;24210;-81
2023/02/23 08:37:45;;;;;;;11.70;8.20;;;;;;;8.13;65.30;96620.33;109081;1269;23815;-81
2023/02/23 08:40:17;;;;;;;13.40;8.70;;;;;;;8.17;64.99;96622.39;109139;1270;22555;-81
2023/02/23 08:42:50;;;;;;;13.80;8.50;;;;;;;8.09;65.16;96622.27;109028;1273;30976;-81
2023/02/23 08:45:22;;;;;;;11.40;7.30;;;;;;;8.16;64.62;96623.08;109123;1254;22550;-81
2023/02/23 08:47:54;;;;;;;20.10;10.40;;;;;;;8.00;63.57;96616.92;109078;1266;22520;-81
2023/02/23 08:50:25;;;;;;;13.20;7.70;;;;;;;7.61;63.96;96624.58;109090;1270;22557;-81
2023/02/23 08:52:57;;;;;;;15.50;8.90;;;;;;;7.39;63.74;96624.02;108699;1273;22768;-81
2023/02/23 08:55:28;;;;;;;12.80;8.30;;;;;;;7.30;64.83;96622.55;108726;1271;23233;-80
2023/02/23 08:57:59;;;;;;;17.30;7.70;;;;;;;7.33;64.43;96623.52;109094;1273;25444;-80
2023/02/23 09:00:30;;;;;;;20.20;10.30;;;;;;;7.14;64.04;96622.46;109103;1273;22675;-81
2023/02/23 09:03:01;;;;;;;13.70;8.00;;;;;;;6.99;65.68;96620.37;109098;1273;23318;-81
2023/02/23 09:05:33;;;;;;;16.90;9.40;;;;;;;6.80;65.11;96619.41;109123;1274;22517;-81
2023/02/23 09:08:04;;;;;;;14.90;8.80;;;;;;;6.60;65.74;96617.11;108708;1273;22579;-81
2023/02/23 09:10:35;;;;;;;16.00;9.30;;;;;;;6.37;65.77;96614.34;108727;1274;22532;-81
2023/02/23 09:13:06;;;;;;;17.50;9.70;;;;;;;6.17;67.10;96615.53;108710;1274;22542;-81
2023/02/23 09:15:38;;;;;;;18.00;9.80;;;;;;;6.20;67.63;96617.57;108694;1266;22725;-81
2023/02/23 09:18:13;;;;;;;16.10;10.80;;;;;;;6.07;67.61;96618.02;108725;1273;22776;-81
2023/02/23 09:20:45;;;;;;;15.90;9.10;;;;;;;5.98;68.41;96622.41;108748;1270;22542;-81
2023/02/23 09:23:16;;;;;;;21.50;10.60;;;;;;;6.05;69.33;96620.90;108683;1269;22528;-80
2023/02/23 09:25:47;;;;;;;20.70;11.80;;;;;;;6.11;68.86;96621.12;108706;1266;22986;-80
2023/02/23 09:28:20;;;;;;;17.30;9.30;;;;;;;6.12;69.48;96618.34;108733;1273;22517;-80
2023/02/23 09:30:51;;;;;;;17.00;10.10;;;;;;;6.16;69.44;96620.67;108734;1274;22528;-80
2023/02/23 09:33:22;;;;;;;17.10;8.40;;;;;;;6.07;69.14;96620.39;108758;1273;23813;-81
2023/02/23 09:35:53;;;;;;;18.90;10.60;;;;;;;5.97;69.40;96618.41;108737;1274;22510;-80
2023/02/23 09:38:24;;;;;;;15.60;8.40;;;;;;;5.97;69.97;96624.14;108763;1274;22527;-80
2023/02/23 09:40:56;;;;;;;18.20;8.90;;;;;;;6.03;69.77;96621.04;108683;1272;35968;-80
2023/02/23 09:43:35;;;;;;;15.90;10.40;;;;;;;6.09;70.03;96618.68;108739;1274;22535;-81
2023/02/23 09:46:14;;;;;;;15.50;10.30;;;;;;;6.17;70.48;96619.48;108753;1272;22641;-80
2023/02/23 09:48:45;;;;;;;15.30;8.90;;;;;;;6.32;70.41;96622.63;108708;1274;22538;-80
2023/02/23 09:51:21;;;;;;;17.40;10.20;;;;;;;6.48;70.16;96619.65;108716;1272;22539;-81
2023/02/23 09:53:55;;;;;;;19.50;10.50;;;;;;;6.58;70.51;96620.56;108740;1274;25285;-80
2023/02/23 09:56:34;;;;;;;20.70;10.70;;;;;;;6.73;70.25;96617.82;108701;1273;27193;-80
2023/02/23 09:59:07;;;;;;;17.40;10.90;;;;;;;6.70;69.88;96617.02;108746;1274;23006;-80
2023/02/23 10:01:56;;;;;;;16.20;10.10;;;;;;;6.67;69.77;96618.67;108604;1266;26562;-80
2023/02/23 10:04:31;;;;;;;16.30;9.50;;;;;;;6.79;70.04;96616.61;108615;1274;23852;-80
2023/02/23 10:07:12;;;;;;;16.00;10.30;;;;;;;6.79;69.88;96619.15;108543;1266;24998;-80
2023/02/23 10:09:58;;;;;;;18.00;10.30;;;;;;;6.89;69.79;96621.84;108581;1273;22558;-80
2023/02/23 10:12:40;;;;;;;17.90;11.70;;;;;;;7.07;69.96;96619.48;108540;1274;22528;-80
2023/02/23 10:15:34;;;;;;;18.60;10.70;;;;;;;7.21;70.26;96621.02;108570;1266;25268;-80
2023/02/23 10:18:19;;;;;;;15.30;10.90;;;;;;;7.32;69.44;96614.17;108547;1273;22649;-80
2023/02/23 10:20:59;;;;;;;15.10;10.30;;;;;;;7.40;69.80;96613.98;108577;1270;22520;-80
2023/02/23 10:23:34;;;;;;;15.30;9.90;;;;;;;7.54;69.31;96611.41;108503;1274;25454;-80
2023/02/23 10:26:08;;;;;;;20.00;11.80;;;;;;;7.59;69.44;96610.38;108564;1272;23798;-80
2023/02/23 10:28:39;;;;;;;15.60;9.80;;;;;;;7.67;69.44;96610.67;109220;1266;22531;-80
2023/02/23 10:31:26;;;;;;;20.00;12.10;;;;;;;7.70;69.26;96607.88;108740;1274;23000;-80
2023/02/23 10:34:03;;;;;;;16.80;10.10;;;;;;;7.82;69.54;96610.23;108702;1274;22514;-80
2023/02/23 10:36:38;;;;;;;18.20;10.60;;;;;;;7.88;69.29;96602.80;108719;1274;25265;-80
2023/02/23 10:39:13;;;;;;;14.30;9.40;;;;;;;8.00;69.30;96604.57;108814;1274;22531;-80
2023/02/23 10:41:44;;;;;;;14.90;9.00;;;;;;;8.14;68.94;96598.80;108717;1274;22992;-80
2023/02/23 10:44:21;;;;;;;15.20;9.30;;;;;;;8.18;68.65;96602.34;108703;1272;25427;-79
2023/02/23 10:46:58;;;;;;;15.10;9.00;;;;;;;8.22;68.33;96596.94;108897;1274;22517;-79
2023/02/23 10:49:35;;;;;;;14.50;8.60;;;;;;;8.25;68.34;96598.63;108784;1274;23980;-80
2023/02/23 10:52:12;;;;;;;14.30;8.70;;;;;;;8.35;68.20;96593.12;108755;1265;38368;-79
2023/02/23 10:54:46;;;;;;;13.60;8.50;;;;;;;8.44;67.73;96591.60;108710;1274;23821;-80
2023/02/23 10:57:29;;;;;;;11.30;7.80;;;;;;;8.48;67.82;96590.02;108789;1273;22525;-80
2023/02/23 11:00:31;;;;;;;13.20;8.50;;;;;;;8.56;67.66;96586.92;108714;1266;22523;-80
2023/02/23 11:03:17;;;;;;;13.20;8.50;;;;;;;8.48;67.18;96577.55;108692;1266;24218;-80
2023/02/23 11:05:52;;;;;;;15.80;8.90;;;;;;;8.43;66.84;96577.60;108730;1263;25442;-80
2023/02/23 11:08:28;;;;;;;12.60;7.80;;;;;;;8.35;66.76;96576.16;108710;1266;25427;-80
2023/02/23 11:11:02;;;;;;;15.40;8.80;;;;;;;8.32;66.89;96576.41;108815;1273;22614;-80
2023/02/23 11:13:39;;;;;;;13.50;8.80;;;;;;;8.33;66.96;96571.98;108793;1274;22640;-79
2023/02/23 11:16:13;;;;;;;14.80;8.90;;;;;;;8.32;66.84;96567.70;108745;1274;25348;-80
2023/02/23 11:18:53;;;;;;;12.60;8.20;;;;;;;8.34;67.06;96567.35;108709;1266;26447;-80
2023/02/23 11:21:32;;;;;;;13.70;7.60;;;;;;;8.41;67.07;96564.43;108698;1274;22632;-80
2023/02/23 11:24:22;;;;;;;14.50;8.30;;;;;;;8.38;66.43;96557.45;108736;1274;25269;-80
2023/02/23 11:26:59;;;;;;;13.60;9.00;;;;;;;8.27;67.11;96558.13;108754;1274;22527;-80
2023/02/23 11:29:35;;;;;;;11.50;7.90;;;;;;;8.30;67.20;96559.66;108734;1270;22570;-79
2023/02/23 11:32:12;;;;;;;12.60;8.60;;;;;;;8.41;67.68;96556.88;108730;1274;22525;-80
2023/02/23 11:34:48;;;;;;;13.50;7.90;;;;;;;8.55;67.51;96555.48;108772;1274;22516;-79
2023/02/23 11:37:24;;;;;;;16.60;10.10;;;;;;;8.55;66.99;96550.89;108708;1272;22528;-79
2023/02/23 11:39:57;;;;;;;12.60;8.30;;;;;;;8.54;67.04;96549.27;108727;1267;22630;-79
2023/02/23 11:42:32;;;;;;;15.90;8.40;;;;;;;8.50;66.78;96545.37;108673;1272;22527;-79
2023/02/23 11:45:15;;;;;;;13.80;9.00;;;;;;;8.46;67.03;96544.41;108784;1274;23896;-79
2023/02/23 11:47:49;;;;;;;13.10;8.40;;;;;;;8.60;67.63;96541.65;108747;1267;22574;-79
2023/02/23 11:50:27;;;;;;;11.50;7.60;;;;;;;8.75;67.33;96539.56;108736;1274;23830;-79
2023/02/23 11:53:06;;;;;;;11.70;7.80;;;;;;;8.84;66.81;96537.16;108746;1274;26613;-79
2023/02/23 11:55:36;;;;;;;;;;;;;;;8.93;67.01;96535.13;108773;1274;25375;-79
2023/02/23 11:58:27;;;;;;;13.20;7.50;;;;;;;9.06;66.70;96525.94;108732;1274;26583;-79
2023/02/23 12:01:00;;;;;;;14.20;8.40;;;;;;;9.14;66.29;96530.45;108699;1273;22521;-79
2023/02/23 12:03:34;;;;;;;14.30;8.40;;;;;;;9.19;65.98;96524.78;108708;1272;22532;-79
2023/02/23 12:06:06;;;;;;;13.40;7.80;;;;;;;9.23;66.20;96527.25;108756;1272;22591;-79
2023/02/23 12:08:43;;;;;;;12.20;8.10;;;;;;;9.28;65.97;96524.52;108697;1272;24224;-79
2023/02/23 12:11:19;;;;;;;11.90;7.00;;;;;;;9.28;65.69;96522.45;108746;1273;22532;-79
2023/02/23 12:13:56;;;;;;;14.50;7.10;;;;;;;9.30;65.53;96524.84;108723;1274;23604;-79
2023/02/23 12:16:33;;;;;;;12.70;7.90;;;;;;;9.42;65.80;96519.70;108808;1269;25447;-79
2023/02/23 12:19:11;;;;;;;11.10;6.90;;;;;;;9.57;65.68;96516.39;108731;1274;22532;-79
2023/02/23 12:21:47;;;;;;;12.70;7.60;;;;;;;9.69;65.67;96513.34;108703;1268;24027;-79
2023/02/23 12:24:26;;;;;;;10.40;6.60;;;;;;;9.84;65.63;96511.99;108756;1273;22520;-79
2023/02/23 12:27:01;;;;;;;12.90;7.40;;;;;;;9.86;64.54;96508.33;108769;1256;22649;-79
2023/02/23 12:29:41;;;;;;;12.60;7.60;;;;;;;9.84;64.63;96508.70;108799;1273;24257;-79
2023/02/23 12:32:18;;;;;;;13.00;6.80;;;;;;;9.87;64.38;96506.67;108736;1273;22554;-79
2023/02/23 12:34:55;;;;;;;12.50;8.20;;;;;;;9.91;64.50;96506.44;108730;1270;25326;-79
2023/02/23 12:37:45;;;;;;;10.90;6.60;;;;;;;9.99;64.77;96509.40;108725;1269;24334;-79
2023/02/23 12:40:20;;;;;;;11.40;7.30;;;;;;;10.03;64.39;96501.95;108738;1272;22551;-79
2023/02/23 12:43:02;;;;;;;13.60;7.70;;;;;;;10.08;64.34;96498.51;108715;1274;22575;-79
2023/02/23 12:45:43;;;;;;;11.60;7.10;;;;;;;10.11;64.36;96496.09;108753;1266;22529;-79
2023/02/23 12:48:28;;;;;;;9.70;6.40;;;;;;;10.18;64.01;96496.80;108730;1266;22563;-79
2023/02/23 12:51:04;;;;;;;8.10;5.60;;;;;;;10.18;63.91;96493.15;108764;1273;22524;-79
2023/02/23 12:53:40;;;;;;;10.20;6.20;;;;;;;10.23;63.80;96496.02;108657;1274;22517;-79
2023/02/23 12:56:32;;;;;;;11.70;6.90;;;;;;;10.27;63.73;96492.98;108629;1273;23977;-79
2023/02/23 12:59:20;;;;;;;8.90;6.10;;;;;;;10.32;63.95;96488.23;108633;1272;25431;-79
2023/02/23 13:01:58;;;;;;;11.50;8.10;;;;;;;10.33;63.73;96485.46;108594;1273;23168;-79
2023/02/23 13:04:48;;;;;;;10.20;6.60;;;;;;;10.28;63.71;96481.27;108812;1261;22521;-79
2023/02/23 13:07:25;;;;;;;9.20;6.60;;;;;;;10.25;63.93;96480.02;108629;1274;24225;-79
2023/02/23 13:10:11;;;;;;;10.80;6.30;;;;;;;10.31;64.50;96480.55;108661;1252;22525;-79